Airfield :
LOGIN :

Register | Disclaimer

   EN    FR    IT 

 










Legend :    VFR   Marginal VFR   IFR   Intensive IFR   Very Intensive IFR
Visi :
Ceiling :
>= 8 km
>= 3000ft
5 to 8 km
1000 to 3000 ft
1500m to 5 km
500 to 1000 ft
800 to 1500m
200 to 500 ft
< 800m
< 200 ft
Symbols :   Thunderstorms  Fog  Heavy snow  Heavy precipitations  Wind > 20 kt
SIGMETs :     Misc.  Thunderstorms  Icing  Turbulence  Mountain Waves  Volcanic Ashes







- Airport Elevation : 140 ft


ESTL - Ljungbyhed

CURRENT METAR :
  • 181150Z 17009KT 140V220 CAVOK 25/14 Q1017

EXPIRED METARs :
  • 181120Z 15011KT 9999 FEW029 25/14 Q1018
  • 181050Z 15011KT 9999 NSC 24/14 Q1018
  • 181020Z 15010KT 9999 FEW026 24/14 Q1018
  • 180950Z 16010KT CAVOK 23/14 Q1018
  • 180920Z 16010KT CAVOK 23/14 Q1018

TAF TAF ESTL
Valid from the 18 at 12:00 until the 18 at 15:00 UTC


181106Z 1812/1815 16010KT 9999 FEW040
No reported NOTAMs for that airfield.



MET'MAP, your aeronautical weather chart ! - Copyright ORBIFLY December 2007 - Disclaimer

ORBIFLY MET'MAP TEAM :

Programming & Development : Alexandra Zaïnal
Concept & Development : Baudouin d'Aumeries
Co-Development & Prog : Marc-Olivier Méhu
Technical & hardware support : Manuel Goepfert

Contact : metmap@orbifly.com




SOURCES & CREDITS :

   NOAA